»·PEaware :: DIHNF M94-S36

DIHNF :: M94-S36

FLIGHT INFORMATION

Flight Status: Arrived
Operator: Unknown
More flights by this operator :: More flights under this callsign
Pilot: Klaus A. (15485)
Aircraft: BEECH AIRCRAFT BARON
(BE58)
More flights by this aircraft type
Origin: M94 Desert Aire
United States
Destination: S36 Norman Grier Field
United States
More flights between these airports :: More routes between these airports
Route: DCT
File this flight plan on PilotEdge
Remarks:
Altitude:
(Current/Filed)
10,500ft
Speed:
(Current/Filed)
170kts
Departed: 05-May-20 08:32 AM
Arrived: 05-May-20 09:12 AM
Distance/Time
Traveled:
97nm/0:40
Distance/Time
To Go:
Arrived

Flight Plot

Page will automatically refresh every two minutes.

Flight plan parsing failed; only flown route is shown


Map Options




Map Legend


Flown Route
Filed Route
Departure Airport
Arrival Airport
Navaid (VOR, NDB)
Fix

Horizontal Profiles

Position Reports

Time Latitude Longitude Heading Altitude Ground
Speed
05-May-20 08:05 46.684509 -119.913884 115 588ft 0kts
05-May-20 08:06 46.684509 -119.913884 115 588ft 0kts
05-May-20 08:07 46.684509 -119.913884 115 588ft 0kts
05-May-20 08:08 46.684509 -119.913884 115 588ft 0kts
05-May-20 08:09 46.684509 -119.913884 115 588ft 0kts
05-May-20 08:11 46.684509 -119.913884 115 588ft 0kts
05-May-20 08:12 46.684509 -119.913884 115 588ft 0kts
05-May-20 08:13 46.684509 -119.913884 115 588ft 0kts
05-May-20 08:14 46.684509 -119.913884 115 588ft 0kts
05-May-20 08:15 46.684509 -119.913884 115 588ft 0kts
05-May-20 08:16 46.684496 -119.913699 49 588ft 3kts
05-May-20 08:17 46.684731 -119.913432 33 589ft 0kts
05-May-20 08:18 46.684496 -119.913673 36 588ft 15kts
05-May-20 08:19 46.684271 -119.913917 46 587ft 3kts
05-May-20 08:20 46.684282 -119.913899 52 588ft 3kts
05-May-20 08:21 46.684948 -119.912681 127 589ft 11kts
05-May-20 08:29 46.684677 -119.913496 28 589ft 0kts
05-May-20 08:30 46.684677 -119.913496 28 589ft 0kts
05-May-20 08:32 46.686945 -119.918924 296 589ft 96kts
05-May-20 08:32 46.697285 -119.955809 292 1931ft 121kts
05-May-20 08:33 46.713452 -120.001341 295 3515ft 129kts
05-May-20 08:34 46.728833 -120.057216 293 4334ft 163kts
05-May-20 08:35 46.747417 -120.111149 289 5737ft 146kts
05-May-20 08:36 46.763527 -120.164665 294 7176ft 146kts
05-May-20 08:37 46.781028 -120.219427 287 8543ft 151kts
05-May-20 08:38 46.797121 -120.275683 289 9739ft 149kts
05-May-20 08:39 46.815358 -120.335952 284 10232ft 177kts
05-May-20 08:40 46.835897 -120.402738 284 10474ft 182kts
05-May-20 08:41 46.857081 -120.472417 284 10481ft 189kts
05-May-20 08:42 46.878052 -120.541271 284 10479ft 191kts
05-May-20 08:43 46.899645 -120.612582 288 10482ft 191kts
05-May-20 08:44 46.920626 -120.682097 293 10478ft 191kts
05-May-20 08:45 46.942085 -120.753312 293 10476ft 191kts
05-May-20 08:46 46.963607 -120.824984 293 10474ft 191kts
05-May-20 08:47 46.985004 -120.896473 293 10479ft 191kts
05-May-20 08:48 47.006321 -120.967900 293 10477ft 192kts
05-May-20 08:49 47.027678 -121.039694 294 10479ft 191kts
05-May-20 08:50 47.048957 -121.111381 294 10479ft 191kts
05-May-20 08:51 47.070172 -121.183075 294 10479ft 191kts
05-May-20 08:52 47.091382 -121.254969 294 10479ft 191kts
05-May-20 08:53 47.112510 -121.326788 294 10479ft 191kts
05-May-20 08:54 47.133558 -121.398543 294 10479ft 191kts
05-May-20 08:55 47.154630 -121.470597 294 10479ft 191kts
05-May-20 08:56 47.175697 -121.542828 294 10270ft 194kts
05-May-20 08:57 47.197226 -121.616768 294 9469ft 197kts
05-May-20 08:58 47.218609 -121.690664 293 8686ft 195kts
05-May-20 08:59 47.239292 -121.762259 293 7880ft 185kts
05-May-20 09:00 47.258199 -121.827918 295 7071ft 175kts
05-May-20 09:01 47.276912 -121.892975 295 6207ft 164kts
05-May-20 09:02 47.292627 -121.948070 296 5134ft 139kts
05-May-20 09:03 47.307379 -121.999452 293 3993ft 135kts
05-May-20 09:04 47.321399 -122.050218 314 2796ft 133kts
05-May-20 09:05 47.352837 -122.065197 343 1562ft 107kts
05-May-20 09:06 47.356143 -122.101878 236 1032ft 104kts
05-May-20 09:07 47.328328 -122.101680 168 727ft 122kts
05-May-20 09:08 47.313445 -122.061270 55 1476ft 166kts
05-May-20 09:09 47.348426 -122.066846 341 1431ft 101kts
05-May-20 09:10 47.357561 -122.101221 248 1064ft 118kts
05-May-20 09:11 47.335795 -122.103269 173 476ft 2kts
05-May-20 09:12 47.336809 -122.103188 352 476ft 13kts
05-May-20 09:13 47.338613 -122.103431 352 476ft 0kts
05-May-20 09:14 47.338613 -122.103431 352 476ft 0kts
05-May-20 09:15 47.338613 -122.103431 352 476ft 0kts
05-May-20 09:16 47.338613 -122.103431 352 476ft 0kts
05-May-20 09:17 47.338613 -122.103431 352 476ft 0kts
05-May-20 09:18 47.338613 -122.103431 352 476ft 0kts
05-May-20 09:19 47.338613 -122.103431 352 476ft 0kts
05-May-20 09:20 47.338613 -122.103431 352 476ft 0kts
05-May-20 09:21 47.338613 -122.103431 352 476ft 0kts
05-May-20 09:22 47.338613 -122.103431 352 476ft 0kts
05-May-20 09:23 47.338613 -122.103431 352 476ft 0kts
05-May-20 09:24 47.338613 -122.103431 352 476ft 0kts

Navigation Log

Ident Type
Flight plan parsing failed, navigation log unavailable